Time;durP1;ratioP1;P1;durP2;ratioP2;P2;SDS_P1;SDS_P2;PMS_P1;PMS_P2;Temp;Humidity;BMP_temperature;BMP_pressure;BME280_temperature;BME280_humidity;BME280_pressure;Samples;Min_cycle;Max_cycle;Signal;HPM_P1;HPM_P2
2023/04/14 00:00:12;;;;;;;13.18;3.55;;;4.40;99.90;;;;;;5032688;28;20041;-39
2023/04/14 00:02:38;;;;;;;18.10;4.05;;;4.40;99.90;;;;;;5031260;28;20234;-39
2023/04/14 00:05:04;;;;;;;11.63;3.40;;;4.40;99.90;;;;;;5032683;28;20037;-40
2023/04/14 00:07:30;;;;;;;13.35;3.88;;;4.40;99.90;;;;;;5033131;28;20077;-41
2023/04/14 00:09:55;;;;;;;12.10;3.45;;;4.30;99.90;;;;;;5033160;28;20124;-45
2023/04/14 00:12:21;;;;;;;11.02;3.47;;;4.30;99.90;;;;;;5032305;28;20582;-36
2023/04/14 00:14:48;;;;;;;15.63;3.95;;;4.30;99.90;;;;;;5031658;28;20392;-43
2023/04/14 00:17:14;;;;;;;15.35;4.07;;;4.20;99.90;;;;;;5031067;28;20045;-41
2023/04/14 00:19:40;;;;;;;14.80;3.50;;;4.20;99.90;;;;;;5031379;28;20376;-38
2023/04/14 00:22:05;;;;;;;18.90;4.28;;;4.20;99.90;;;;;;5032671;28;20059;-40
2023/04/14 00:24:31;;;;;;;12.68;3.65;;;4.10;99.90;;;;;;5028576;28;20032;-36
2023/04/14 00:26:57;;;;;;;13.93;3.70;;;4.10;99.90;;;;;;5036918;28;20598;-40
2023/04/14 00:29:22;;;;;;;11.25;3.47;;;4.10;99.90;;;;;;5036034;28;20131;-43
2023/04/14 00:31:48;;;;;;;13.00;3.47;;;4.10;99.90;;;;;;5032924;28;20096;-44
2023/04/14 00:34:13;;;;;;;10.57;3.30;;;4.10;99.90;;;;;;5035806;28;20084;-39
2023/04/14 00:36:39;;;;;;;10.88;3.22;;;4.10;99.90;;;;;;5036052;28;20040;-43
2023/04/14 00:39:05;;;;;;;13.70;3.78;;;4.10;99.90;;;;;;5034164;28;20045;-41
2023/04/14 00:41:34;;;;;;;13.68;4.55;;;4.10;99.90;;;;;;5034461;28;20380;-41
2023/04/14 00:44:00;;;;;;;12.65;3.97;;;4.10;99.90;;;;;;5033169;28;20045;-44
2023/04/14 00:46:26;;;;;;;11.65;3.38;;;4.00;99.90;;;;;;5035559;28;20080;-39
2023/04/14 00:48:54;;;;;;;11.35;3.30;;;4.00;99.90;;;;;;5032988;28;20697;-45
2023/04/14 00:51:20;;;;;;;10.57;3.65;;;4.00;99.90;;;;;;5034185;28;20124;-42
2023/04/14 00:53:48;;;;;;;10.98;3.53;;;4.00;99.90;;;;;;5033493;28;20555;-40
2023/04/14 00:56:14;;;;;;;20.08;3.22;;;4.00;99.90;;;;;;5035569;28;20053;-39
2023/04/14 00:58:40;;;;;;;10.68;3.45;;;4.00;99.90;;;;;;5035004;28;20099;-44
2023/04/14 01:01:06;;;;;;;14.70;3.90;;;4.00;99.90;;;;;;5035940;28;20044;-42
2023/04/14 01:03:33;;;;;;;15.10;3.42;;;4.00;99.90;;;;;;5035853;28;20068;-40
2023/04/14 01:05:59;;;;;;;10.70;3.60;;;3.90;99.90;;;;;;5034746;28;20050;-41
2023/04/14 01:08:25;;;;;;;15.80;3.72;;;3.90;99.90;;;;;;5035952;28;20049;-36
2023/04/14 01:11:03;;;;;;;11.80;3.63;;;3.90;99.90;;;;;;5036331;28;20095;-39
2023/04/14 01:14:20;;;;;;;10.80;3.53;;;3.80;99.90;;;;;;5033650;28;20070;-40
2023/04/14 01:16:48;;;;;;;10.43;3.30;;;3.80;99.90;;;;;;4954434;28;20136;-44
2023/04/14 01:19:20;;;;;;;9.77;3.33;;;3.70;99.90;;;;;;4953897;28;20070;-41
2023/04/14 01:21:49;;;;;;;10.27;3.42;;;3.70;99.90;;;;;;4953769;28;20395;-41
2023/04/14 01:24:15;;;;;;;8.07;2.72;;;3.60;99.90;;;;;;4953884;28;20055;-38
2023/04/14 01:26:42;;;;;;;10.05;3.90;;;3.60;99.90;;;;;;4954348;28;20062;-42
2023/04/14 01:29:26;;;;;;;12.30;3.58;;;3.50;99.90;;;;;;4938514;28;20314;-40
2023/04/14 01:32:10;;;;;;;14.55;3.50;;;3.50;99.90;;;;;;4939424;28;20185;-45
2023/04/14 01:34:48;;;;;;;10.80;3.38;;;3.40;99.90;;;;;;4954126;28;20047;-40
2023/04/14 01:37:33;;;;;;;10.05;3.88;;;3.40;99.90;;;;;;4952695;28;20101;-44
2023/04/14 01:40:10;;;;;;;9.52;3.20;;;3.30;99.90;;;;;;4953879;28;20125;-40
2023/04/14 01:42:38;;;;;;;12.00;3.58;;;3.30;99.90;;;;;;4954315;28;20145;-39
2023/04/14 01:45:14;;;;;;;12.55;3.47;;;3.30;99.90;;;;;;4953665;28;20585;-36
2023/04/14 01:47:41;;;;;;;9.77;3.55;;;3.30;99.90;;;;;;4954128;28;20402;-36
2023/04/14 01:50:10;;;;;;;13.88;3.22;;;3.30;99.90;;;;;;4938245;28;20458;-43
2023/04/14 01:52:37;;;;;;;10.05;3.65;;;3.30;99.90;;;;;;5009246;28;20475;-37
2023/04/14 01:55:05;;;;;;;7.63;2.85;;;3.20;99.90;;;;;;5034382;28;20044;-41
2023/04/14 01:57:33;;;;;;;11.63;3.92;;;3.20;99.90;;;;;;5035744;28;20600;-36
2023/04/14 02:00:00;;;;;;;9.65;3.00;;;3.20;99.90;;;;;;5034641;28;20127;-41
2023/04/14 02:02:26;;;;;;;9.35;3.00;;;3.20;99.90;;;;;;5035804;28;20055;-45
2023/04/14 02:04:56;;;;;;;7.45;3.55;;;3.20;99.90;;;;;;5034587;28;20096;-45
2023/04/14 02:07:23;;;;;;;13.90;3.55;;;3.20;99.90;;;;;;5035049;28;20229;-39
2023/04/14 02:09:50;;;;;;;11.27;3.72;;;3.20;99.90;;;;;;5035473;28;20470;-41
2023/04/14 02:12:19;;;;;;;9.40;3.20;;;3.10;99.90;;;;;;5028181;28;20053;-38
2023/04/14 02:14:46;;;;;;;11.85;3.42;;;3.10;99.90;;;;;;5031746;28;20117;-40
2023/04/14 02:17:13;;;;;;;11.15;3.33;;;3.10;99.90;;;;;;5035866;28;20558;-37
2023/04/14 02:19:42;;;;;;;17.85;3.75;;;3.10;99.90;;;;;;5023627;28;20048;-36
2023/04/14 02:22:08;;;;;;;9.18;3.03;;;3.10;99.90;;;;;;5051854;28;20985;-43
2023/04/14 02:24:34;;;;;;;11.65;3.35;;;3.10;99.90;;;;;;5035476;28;20127;-41
2023/04/14 02:27:09;;;;;;;9.65;3.42;;;3.10;99.90;;;;;;5036400;28;20052;-36
2023/04/14 02:29:37;;;;;;;11.80;3.28;;;3.10;99.90;;;;;;5036645;28;20132;-40
2023/04/14 02:32:05;;;;;;;10.30;3.47;;;3.00;99.90;;;;;;5037396;28;20044;-36
2023/04/14 02:34:36;;;;;;;8.55;3.53;;;3.10;99.90;;;;;;5036233;28;20154;-36
2023/04/14 02:37:21;;;;;;;10.43;3.90;;;3.10;99.90;;;;;;5051653;28;20045;-44
2023/04/14 02:39:54;;;;;;;14.25;3.72;;;3.10;99.90;;;;;;5036513;28;20136;-43
2023/04/14 02:42:24;;;;;;;9.73;3.40;;;3.10;99.90;;;;;;5035996;28;20090;-38
2023/04/14 02:45:01;;;;;;;7.93;3.47;;;3.10;99.90;;;;;;5050978;28;20369;-40
2023/04/14 02:47:40;;;;;;;10.00;3.83;;;3.10;99.90;;;;;;5035574;28;20053;-42
2023/04/14 02:50:10;;;;;;;8.00;3.35;;;3.00;99.90;;;;;;5036169;28;20053;-40
2023/04/14 02:52:37;;;;;;;10.75;3.85;;;3.00;99.90;;;;;;5034455;28;20045;-41
2023/04/14 02:55:06;;;;;;;8.63;3.53;;;3.00;99.90;;;;;;5035323;28;20041;-40
2023/04/14 02:57:32;;;;;;;13.65;3.92;;;3.00;99.90;;;;;;5042655;28;20199;-39
2023/04/14 02:59:59;;;;;;;13.50;4.40;;;3.00;99.90;;;;;;5030258;28;20044;-37
2023/04/14 03:02:25;;;;;;;8.90;3.38;;;3.00;99.90;;;;;;5036262;28;20095;-37
2023/04/14 03:04:52;;;;;;;9.13;4.00;;;3.00;99.90;;;;;;5035616;28;20462;-38
2023/04/14 03:07:20;;;;;;;9.77;3.88;;;3.00;99.90;;;;;;5035771;28;20052;-42
2023/04/14 03:09:48;;;;;;;12.30;4.30;;;2.90;99.90;;;;;;5035372;28;20056;-38
2023/04/14 03:12:15;;;;;;;8.90;3.60;;;2.90;99.90;;;;;;5035801;28;20052;-38
2023/04/14 03:14:43;;;;;;;9.48;4.03;;;2.90;99.90;;;;;;5035034;28;20049;-39
2023/04/14 03:17:10;;;;;;;10.27;4.13;;;2.90;99.90;;;;;;5035373;28;20095;-42
2023/04/14 03:19:39;;;;;;;10.13;4.03;;;2.90;99.90;;;;;;5021067;28;20132;-37
2023/04/14 03:22:07;;;;;;;10.77;4.10;;;2.90;99.90;;;;;;5050635;28;20099;-38
2023/04/14 03:24:34;;;;;;;14.02;4.63;;;2.90;99.90;;;;;;5030991;28;20068;-38
2023/04/14 03:27:05;;;;;;;8.85;4.03;;;2.90;99.90;;;;;;5033590;28;20118;-41
2023/04/14 03:29:45;;;;;;;9.65;3.80;;;2.90;99.90;;;;;;5022895;28;20049;-38
2023/04/14 03:32:16;;;;;;;12.68;3.78;;;2.90;99.90;;;;;;5036403;28;20052;-36
2023/04/14 03:34:45;;;;;;;13.48;3.80;;;2.90;99.90;;;;;;5033363;28;20515;-38
2023/04/14 03:37:15;;;;;;;12.10;4.07;;;2.90;99.90;;;;;;5033589;28;20139;-39
2023/04/14 03:39:42;;;;;;;9.25;3.90;;;2.90;99.90;;;;;;5024089;28;20063;-37
2023/04/14 03:42:10;;;;;;;10.70;3.58;;;2.90;99.90;;;;;;5035790;28;20673;-42
2023/04/14 03:44:38;;;;;;;8.68;3.40;;;2.80;99.90;;;;;;5035149;28;20045;-40
2023/04/14 03:47:06;;;;;;;6.97;3.50;;;2.80;99.90;;;;;;5021913;28;20076;-41
2023/04/14 03:49:36;;;;;;;7.50;3.72;;;2.80;99.90;;;;;;5035458;28;20076;-40
2023/04/14 03:52:09;;;;;;;10.65;3.83;;;2.80;99.90;;;;;;5034902;28;20049;-40
2023/04/14 03:54:38;;;;;;;15.20;4.05;;;2.80;99.90;;;;;;5025910;28;20128;-38
2023/04/14 03:57:05;;;;;;;7.55;3.60;;;2.70;99.90;;;;;;5034331;28;20080;-36
2023/04/14 03:59:32;;;;;;;15.25;3.50;;;2.70;99.90;;;;;;5034585;28;20546;-36
2023/04/14 04:01:59;;;;;;;13.45;4.32;;;2.70;99.90;;;;;;5035414;28;20862;-44
2023/04/14 04:04:25;;;;;;;9.55;4.00;;;2.70;99.90;;;;;;5035137;28;20526;-41
2023/04/14 04:06:53;;;;;;;8.15;3.42;;;2.70;99.90;;;;;;5037042;28;20064;-37
2023/04/14 04:09:23;;;;;;;8.80;3.25;;;2.70;99.90;;;;;;5037483;28;20059;-41
2023/04/14 04:11:51;;;;;;;10.95;3.75;;;2.60;99.90;;;;;;5033453;28;20060;-40
2023/04/14 04:14:20;;;;;;;12.02;3.85;;;2.60;99.90;;;;;;5034561;28;20060;-37
2023/04/14 04:16:48;;;;;;;13.75;4.35;;;2.50;99.90;;;;;;5036915;28;20123;-39
2023/04/14 04:19:17;;;;;;;9.45;4.50;;;2.50;99.90;;;;;;5051875;28;20063;-40
2023/04/14 04:21:44;;;;;;;16.48;5.20;;;2.50;99.90;;;;;;5037230;28;20122;-42
2023/04/14 04:24:12;;;;;;;9.07;4.20;;;2.50;99.90;;;;;;5034065;28;20033;-35
2023/04/14 04:26:38;;;;;;;7.75;4.82;;;2.50;99.90;;;;;;5037233;28;20049;-44
2023/04/14 04:29:04;;;;;;;12.38;5.07;;;2.50;99.90;;;;;;5035014;28;20389;-36
2023/04/14 04:31:33;;;;;;;9.98;4.78;;;2.60;99.90;;;;;;5036249;28;20044;-38
2023/04/14 04:34:01;;;;;;;14.65;4.47;;;2.60;99.90;;;;;;5034950;28;20110;-42
2023/04/14 04:36:30;;;;;;;12.50;5.15;;;2.60;99.90;;;;;;5048117;28;20044;-39
2023/04/14 04:38:56;;;;;;;13.85;4.95;;;2.60;99.90;;;;;;5034085;28;20563;-44
2023/04/14 04:41:22;;;;;;;14.43;5.18;;;2.60;99.90;;;;;;5035705;28;20049;-43
2023/04/14 04:43:48;;;;;;;12.55;5.15;;;2.60;99.90;;;;;;5036215;28;20045;-42
2023/04/14 04:46:24;;;;;;;11.60;5.25;;;2.60;99.90;;;;;;5037261;28;20080;-38
2023/04/14 04:48:52;;;;;;;12.43;4.80;;;2.60;99.90;;;;;;5035757;28;20086;-38
2023/04/14 04:51:18;;;;;;;9.55;5.28;;;2.60;99.90;;;;;;5036102;28;20049;-41
2023/04/14 04:53:44;;;;;;;7.97;4.47;;;2.60;99.90;;;;;;5037090;28;20086;-42
2023/04/14 04:56:10;;;;;;;12.90;4.55;;;2.60;99.90;;;;;;5036191;28;20124;-36
2023/04/14 04:58:36;;;;;;;14.52;6.93;;;2.60;99.90;;;;;;5035844;28;20079;-38
2023/04/14 05:01:11;;;;;;;14.98;6.22;;;2.60;99.90;;;;;;5037175;28;20134;-42
2023/04/14 05:03:36;;;;;;;10.77;4.82;;;2.60;99.90;;;;;;5037183;28;20072;-40
2023/04/14 05:06:03;;;;;;;10.02;4.70;;;2.60;99.90;;;;;;5036696;28;20040;-44
2023/04/14 05:08:28;;;;;;;10.93;4.68;;;2.70;99.90;;;;;;5033831;28;20053;-41
2023/04/14 05:10:54;;;;;;;10.70;5.07;;;2.70;99.90;;;;;;5035595;28;20107;-40
2023/04/14 05:13:21;;;;;;;8.05;4.93;;;2.80;99.90;;;;;;5035459;28;20099;-36
2023/04/14 05:15:47;;;;;;;13.63;5.38;;;2.90;99.90;;;;;;5035168;28;20045;-43
2023/04/14 05:18:13;;;;;;;13.77;5.25;;;3.00;99.90;;;;;;5032075;28;20054;-41
2023/04/14 05:20:39;;;;;;;10.65;4.53;;;3.10;99.90;;;;;;5033943;28;20479;-38
2023/04/14 05:23:05;;;;;;;10.27;4.80;;;3.40;99.90;;;;;;5033256;28;20128;-37
2023/04/14 05:25:31;;;;;;;10.65;5.40;;;4.20;99.90;;;;;;5034904;28;20380;-36
2023/04/14 05:27:56;;;;;;;9.18;4.63;;;5.00;99.90;;;;;;5014990;28;20060;-41
2023/04/14 05:30:22;;;;;;;13.25;4.60;;;5.80;99.90;;;;;;5037234;28;20372;-44
2023/04/14 05:32:48;;;;;;;10.88;4.85;;;6.70;99.90;;;;;;5032647;28;20052;-44
2023/04/14 05:35:14;;;;;;;8.95;4.63;;;7.60;99.90;;;;;;5035992;28;20519;-37
2023/04/14 05:37:40;;;;;;;9.43;4.13;;;8.70;99.90;;;;;;5032887;28;20063;-37
2023/04/14 05:40:06;;;;;;;8.68;3.45;;;9.70;99.90;;;;;;5036110;28;20049;-44
2023/04/14 05:42:32;;;;;;;7.97;3.75;;;10.60;99.90;;;;;;5035596;28;20048;-41
2023/04/14 05:44:58;;;;;;;5.45;3.60;;;11.30;99.90;;;;;;5032450;28;20090;-46
2023/04/14 05:47:23;;;;;;;6.57;3.42;;;12.00;99.90;;;;;;5033447;28;20041;-40
2023/04/14 05:49:49;;;;;;;10.57;3.35;;;12.70;99.90;;;;;;5035981;28;20399;-46
2023/04/14 05:52:15;;;;;;;7.10;3.70;;;13.20;99.90;;;;;;5034262;28;20052;-38
2023/04/14 05:54:40;;;;;;;11.35;3.70;;;13.70;99.90;;;;;;5030904;28;20053;-40
2023/04/14 05:57:06;;;;;;;9.27;4.00;;;14.10;99.90;;;;;;5034610;28;20041;-37
2023/04/14 05:59:32;;;;;;;8.60;3.55;;;14.40;99.90;;;;;;5034620;28;20562;-42
2023/04/14 06:01:58;;;;;;;11.13;3.90;;;14.70;99.90;;;;;;5035301;28;20094;-45
2023/04/14 06:04:24;;;;;;;8.15;4.60;;;14.90;99.90;;;;;;5035404;28;20421;-45
2023/04/14 06:06:50;;;;;;;9.90;4.63;;;15.30;99.90;;;;;;5034076;28;20143;-39
2023/04/14 06:09:15;;;;;;;8.48;4.13;;;15.50;99.90;;;;;;5035678;28;20048;-39
2023/04/14 06:11:41;;;;;;;7.80;3.90;;;15.90;99.90;;;;;;5034776;28;20102;-41
2023/04/14 06:14:07;;;;;;;8.70;4.35;;;16.20;99.90;;;;;;5032377;28;20098;-39
2023/04/14 06:16:32;;;;;;;9.40;4.70;;;16.70;99.90;;;;;;5033797;28;20247;-40
2023/04/14 06:18:58;;;;;;;7.65;4.43;;;17.30;99.90;;;;;;5035540;28;20490;-42
2023/04/14 06:21:24;;;;;;;10.10;4.63;;;17.80;99.90;;;;;;5035251;28;20036;-45
2023/04/14 06:23:50;;;;;;;9.52;5.05;;;18.00;99.70;;;;;;5034486;28;20045;-38
2023/04/14 06:26:15;;;;;;;7.45;4.70;;;18.30;99.40;;;;;;5034766;28;20427;-40
2023/04/14 06:28:41;;;;;;;8.93;4.88;;;18.00;98.30;;;;;;5034392;28;20052;-38
2023/04/14 06:31:07;;;;;;;5.85;4.68;;;18.00;98.70;;;;;;5034859;28;20224;-38
2023/04/14 06:33:32;;;;;;;10.00;4.35;;;17.80;98.80;;;;;;5033936;28;20048;-40
2023/04/14 06:35:58;;;;;;;9.13;4.75;;;17.90;99.80;;;;;;5033073;28;20045;-45
2023/04/14 06:38:24;;;;;;;8.38;5.38;;;17.80;99.90;;;;;;5035050;28;20044;-39
2023/04/14 06:40:50;;;;;;;6.78;4.72;;;18.00;99.90;;;;;;5033500;28;20045;-44
2023/04/14 06:43:16;;;;;;;10.48;5.43;;;18.00;99.90;;;;;;5035458;28;20053;-43
2023/04/14 06:45:42;;;;;;;7.97;5.00;;;18.10;99.50;;;;;;5031740;28;20215;-43
2023/04/14 06:48:10;;;;;;;10.55;5.60;;;18.00;99.10;;;;;;5028187;28;20057;-44
2023/04/14 06:50:35;;;;;;;10.88;5.20;;;18.00;99.20;;;;;;5030161;28;20511;-38
2023/04/14 06:53:01;;;;;;;10.88;5.20;;;18.20;99.90;;;;;;5033345;28;20074;-38
2023/04/14 06:55:27;;;;;;;10.98;5.13;;;18.30;98.90;;;;;;5033401;28;20399;-40
2023/04/14 06:57:53;;;;;;;9.77;6.05;;;18.50;99.00;;;;;;5034171;28;20117;-47
2023/04/14 07:00:19;;;;;;;9.70;5.50;;;18.70;99.90;;;;;;5034297;28;20091;-48
2023/04/14 07:02:45;;;;;;;11.32;4.57;;;18.80;99.80;;;;;;5033321;28;20041;-44
2023/04/14 07:05:11;;;;;;;8.18;4.40;;;18.80;99.20;;;;;;5034004;28;20079;-39
2023/04/14 07:07:39;;;;;;;12.05;5.13;;;19.20;99.90;;;;;;5032857;28;20048;-41
2023/04/14 07:10:05;;;;;;;9.90;4.82;;;19.20;98.40;;;;;;5032987;28;20052;-43
2023/04/14 07:12:32;;;;;;;9.43;4.40;;;19.20;98.70;;;;;;5033979;28;20106;-39
2023/04/14 07:14:58;;;;;;;9.20;4.80;;;18.70;98.90;;;;;;5029290;28;20037;-45
2023/04/14 07:17:24;;;;;;;9.80;4.50;;;18.00;99.90;;;;;;5030975;28;20527;-40
2023/04/14 07:19:49;;;;;;;9.20;4.30;;;17.00;99.90;;;;;;5033709;28;20072;-43
2023/04/14 07:22:15;;;;;;;12.05;4.47;;;16.00;99.90;;;;;;5034605;28;20079;-49
2023/04/14 07:24:41;;;;;;;7.28;4.25;;;15.30;99.90;;;;;;5032623;28;20157;-38
2023/04/14 07:27:13;;;;;;;8.93;5.13;;;15.00;99.90;;;;;;5032602;28;20057;-46
2023/04/14 07:29:40;;;;;;;13.45;4.93;;;14.60;99.90;;;;;;5034884;28;20081;-44
2023/04/14 07:32:06;;;;;;;8.15;4.43;;;14.20;99.90;;;;;;5032501;28;20139;-49
2023/04/14 07:34:32;;;;;;;8.90;4.13;;;14.00;99.90;;;;;;5018949;28;20475;-45
2023/04/14 07:36:57;;;;;;;9.60;4.28;;;13.90;99.90;;;;;;5015034;28;20069;-41
2023/04/14 07:39:23;;;;;;;12.27;4.47;;;13.90;99.90;;;;;;5035424;28;20056;-43
2023/04/14 07:41:49;;;;;;;9.38;4.05;;;14.00;99.90;;;;;;5034883;28;20049;-43
2023/04/14 07:44:14;;;;;;;13.05;4.50;;;14.00;99.90;;;;;;5029441;28;20085;-40
2023/04/14 07:46:40;;;;;;;7.32;4.15;;;14.00;99.90;;;;;;5027192;28;20044;-41
2023/04/14 07:49:05;;;;;;;11.25;4.22;;;13.90;99.90;;;;;;5035349;28;20431;-38
2023/04/14 07:51:31;;;;;;;8.93;5.03;;;14.00;99.90;;;;;;5034843;28;20060;-40
2023/04/14 07:53:57;;;;;;;7.85;4.50;;;14.10;99.90;;;;;;5025856;28;20049;-40
2023/04/14 07:56:23;;;;;;;11.27;4.22;;;14.00;99.90;;;;;;5051136;28;20110;-49
2023/04/14 07:58:49;;;;;;;11.93;4.53;;;14.00;99.90;;;;;;5034738;28;20543;-45
2023/04/14 08:01:14;;;;;;;10.07;4.45;;;14.00;99.90;;;;;;5035207;28;20558;-41
2023/04/14 08:03:40;;;;;;;10.85;4.93;;;14.00;99.90;;;;;;5034145;28;20045;-42
2023/04/14 08:06:06;;;;;;;8.40;4.40;;;14.00;99.90;;;;;;5035238;28;20076;-38
2023/04/14 08:08:33;;;;;;;10.90;4.40;;;14.00;99.90;;;;;;5027384;28;20041;-46
2023/04/14 08:10:58;;;;;;;10.07;5.05;;;13.90;99.90;;;;;;5026376;28;20124;-47
2023/04/14 08:13:24;;;;;;;12.93;4.05;;;13.90;99.90;;;;;;5034610;28;20075;-48
2023/04/14 08:15:50;;;;;;;9.52;4.43;;;13.70;99.90;;;;;;5034295;28;20475;-43
2023/04/14 08:18:16;;;;;;;12.98;5.35;;;13.80;99.90;;;;;;5032426;28;20065;-39
2023/04/14 08:20:42;;;;;;;11.82;4.63;;;13.70;99.90;;;;;;5032247;28;20092;-48
2023/04/14 08:23:07;;;;;;;11.32;4.57;;;13.60;99.90;;;;;;5034368;28;20345;-39
2023/04/14 08:25:33;;;;;;;10.35;4.53;;;13.60;99.90;;;;;;5028534;28;20399;-39
2023/04/14 08:27:59;;;;;;;14.77;5.00;;;13.60;99.90;;;;;;5024435;28;20571;-46
2023/04/14 08:30:25;;;;;;;12.63;4.65;;;13.60;99.90;;;;;;5029722;28;20484;-41
2023/04/14 08:32:50;;;;;;;12.07;4.25;;;13.70;99.90;;;;;;5034335;28;20424;-40
2023/04/14 08:35:17;;;;;;;12.73;4.32;;;13.60;99.90;;;;;;5034582;28;20041;-38
2023/04/14 08:37:42;;;;;;;10.43;4.07;;;13.60;99.90;;;;;;5034546;28;20041;-40
2023/04/14 08:40:09;;;;;;;12.15;4.00;;;13.60;99.90;;;;;;5026077;28;20788;-45
2023/04/14 08:42:35;;;;;;;11.88;4.32;;;13.70;99.90;;;;;;5026445;28;20045;-46
2023/04/14 08:45:00;;;;;;;10.73;3.58;;;13.90;99.90;;;;;;5023874;28;20115;-43
2023/04/14 08:47:30;;;;;;;16.40;3.97;;;14.00;99.90;;;;;;5026599;28;20045;-48
2023/04/14 08:50:03;;;;;;;11.32;4.13;;;14.00;99.90;;;;;;5029526;28;20053;-48
2023/04/14 08:52:30;;;;;;;16.33;5.05;;;13.90;99.90;;;;;;5030126;28;20049;-44
2023/04/14 08:54:58;;;;;;;13.48;3.55;;;13.90;99.90;;;;;;5026628;28;20056;-41
2023/04/14 08:57:25;;;;;;;8.18;3.63;;;13.90;99.90;;;;;;5038029;28;20471;-42
2023/04/14 08:59:53;;;;;;;10.60;3.47;;;14.00;99.90;;;;;;5038692;28;20052;-40
2023/04/14 09:02:20;;;;;;;9.50;2.70;;;13.90;99.90;;;;;;5000364;28;20518;-45
2023/04/14 09:04:46;;;;;;;10.07;3.25;;;13.80;99.90;;;;;;5028364;28;20034;-38
2023/04/14 09:07:13;;;;;;;6.20;2.95;;;13.90;99.90;;;;;;5036647;28;20401;-41
2023/04/14 09:09:39;;;;;;;8.60;2.95;;;13.90;99.90;;;;;;5030547;28;20077;-44
2023/04/14 09:12:06;;;;;;;11.13;3.72;;;13.90;99.90;;;;;;5025109;28;20757;-47
2023/04/14 09:14:32;;;;;;;11.95;2.55;;;14.00;99.90;;;;;;5037204;28;20120;-42
2023/04/14 09:16:58;;;;;;;11.80;2.47;;;14.00;99.90;;;;;;5037300;28;20430;-46
2023/04/14 09:19:25;;;;;;;5.53;2.20;;;14.00;99.90;;;;;;5023987;28;20038;-46
2023/04/14 09:21:51;;;;;;;7.85;2.80;;;14.10;99.90;;;;;;5026207;28;20145;-38
2023/04/14 09:24:22;;;;;;;7.97;2.63;;;14.20;99.90;;;;;;5037606;28;20076;-40
2023/04/14 09:26:51;;;;;;;9.63;2.47;;;14.20;99.90;;;;;;5037752;28;20415;-47
2023/04/14 09:29:16;;;;;;;11.07;3.38;;;14.30;99.90;;;;;;5035617;28;20048;-42
2023/04/14 09:31:44;;;;;;;6.82;2.25;;;14.40;99.90;;;;;;5027835;28;20048;-38
2023/04/14 09:34:20;;;;;;;8.65;2.75;;;14.40;99.90;;;;;;5035122;28;20139;-42
2023/04/14 09:37:04;;;;;;;6.97;2.58;;;14.50;99.90;;;;;;5027145;28;20045;-38
2023/04/14 09:39:33;;;;;;;6.70;2.40;;;14.50;99.90;;;;;;5037553;28;20116;-46
2023/04/14 09:42:03;;;;;;;7.38;2.17;;;14.50;99.90;;;;;;5024124;28;20049;-44
2023/04/14 09:44:29;;;;;;;7.35;2.33;;;14.40;99.90;;;;;;5052251;28;20578;-44
2023/04/14 09:47:06;;;;;;;6.65;2.45;;;14.50;99.90;;;;;;5037169;28;20062;-40
2023/04/14 09:49:32;;;;;;;7.60;2.17;;;14.70;99.90;;;;;;5028216;28;20559;-40
2023/04/14 09:52:07;;;;;;;6.18;2.00;;;14.80;99.90;;;;;;5033663;28;20056;-44
2023/04/14 09:54:34;;;;;;;6.72;2.13;;;14.80;99.90;;;;;;5035905;28;20045;-41
2023/04/14 09:57:01;;;;;;;6.70;1.95;;;14.80;99.90;;;;;;5036546;28;20045;-41
2023/04/14 09:59:35;;;;;;;7.38;1.52;;;14.80;99.90;;;;;;5047679;28;20112;-44
2023/04/14 10:02:06;;;;;;;6.18;2.10;;;14.80;99.90;;;;;;5035677;28;20499;-41
2023/04/14 10:04:32;;;;;;;9.68;2.20;;;15.00;99.90;;;;;;5050967;28;20589;-47
2023/04/14 10:06:58;;;;;;;6.28;1.98;;;15.10;99.90;;;;;;5035777;28;20852;-47
2023/04/14 10:09:29;;;;;;;4.65;1.70;;;15.20;99.90;;;;;;5036581;28;20053;-45
2023/04/14 10:12:13;;;;;;;9.98;2.25;;;15.10;99.90;;;;;;5029046;28;20682;-45
2023/04/14 10:14:42;;;;;;;5.45;2.33;;;14.90;99.90;;;;;;5030934;28;20053;-42
2023/04/14 10:17:09;;;;;;;6.90;2.20;;;14.60;99.90;;;;;;5031013;28;20151;-46
2023/04/14 10:19:36;;;;;;;6.65;2.00;;;14.40;99.90;;;;;;5046662;28;20141;-44
2023/04/14 10:22:04;;;;;;;8.45;2.33;;;14.50;99.90;;;;;;5035887;28;20049;-45
2023/04/14 10:24:31;;;;;;;6.05;1.95;;;14.60;99.90;;;;;;5035218;28;20041;-44
2023/04/14 10:27:01;;;;;;;7.95;3.10;;;15.00;99.90;;;;;;5035852;28;20300;-45
2023/04/14 10:29:27;;;;;;;6.25;2.88;;;15.20;99.90;;;;;;5036615;28;20147;-48
2023/04/14 10:32:02;;;;;;;9.43;3.85;;;15.50;99.90;;;;;;5036267;28;20048;-43
2023/04/14 10:34:31;;;;;;;11.90;3.58;;;15.70;99.90;;;;;;5035480;28;20061;-49
2023/04/14 10:37:14;;;;;;;8.48;2.28;;;15.80;99.90;;;;;;5035496;28;20049;-45
2023/04/14 10:39:41;;;;;;;7.47;2.38;;;15.70;99.90;;;;;;5051109;28;20056;-46
2023/04/14 10:42:07;;;;;;;8.15;2.50;;;15.60;99.90;;;;;;5050078;28;20904;-44
2023/04/14 10:44:34;;;;;;;7.28;2.92;;;15.60;99.90;;;;;;5035195;28;20044;-41
2023/04/14 10:47:03;;;;;;;7.25;2.67;;;15.80;99.90;;;;;;5051004;28;20051;-47
2023/04/14 10:49:37;;;;;;;7.07;2.70;;;15.90;99.90;;;;;;5036394;28;20044;-49
2023/04/14 10:52:32;;;;;;;6.88;3.08;;;16.00;99.90;;;;;;5036354;28;20060;-41
2023/04/14 10:55:06;;;;;;;7.30;3.10;;;15.80;99.30;;;;;;4972838;28;20065;-49
2023/04/14 10:57:39;;;;;;;5.35;2.03;;;15.80;99.90;;;;;;4965440;28;20058;-39
2023/04/14 11:00:26;;;;;;;8.43;2.83;;;15.60;99.90;;;;;;4972040;28;20058;-46
2023/04/14 11:02:57;;;;;;;6.93;2.50;;;15.70;99.90;;;;;;4972417;28;20463;-46
2023/04/14 11:05:24;;;;;;;9.23;2.97;;;15.70;99.90;;;;;;4971585;28;20058;-43
2023/04/14 11:08:00;;;;;;;8.10;3.28;;;15.60;99.90;;;;;;4972235;28;20584;-48
2023/04/14 11:10:29;;;;;;;9.10;2.45;;;15.60;99.90;;;;;;4959301;28;20117;-50
2023/04/14 11:13:07;;;;;;;5.38;2.72;;;15.60;99.90;;;;;;4959464;28;20078;-43
2023/04/14 11:16:06;;;;;;;8.07;2.92;;;15.70;99.90;;;;;;4972997;28;20045;-48
2023/04/14 11:18:36;;;;;;;9.43;3.53;;;15.70;99.90;;;;;;4934146;29;20063;-47
2023/04/14 11:21:10;;;;;;;9.50;3.90;;;15.70;99.90;;;;;;4917912;29;20093;-48
2023/04/14 11:23:37;;;;;;;12.40;4.43;;;15.70;99.90;;;;;;4933993;29;20130;-50
2023/04/14 11:26:07;;;;;;;15.60;4.78;;;15.60;99.90;;;;;;4902225;29;20059;-44
2023/04/14 11:28:34;;;;;;;9.00;3.28;;;15.70;99.90;;;;;;4918154;29;20059;-44
2023/04/14 11:31:02;;;;;;;6.07;2.15;;;15.80;99.90;;;;;;4954065;28;20145;-38
2023/04/14 11:33:34;;;;;;;17.42;7.53;;;15.90;99.90;;;;;;4992589;28;20124;-48
2023/04/14 11:36:18;;;;;;;7.95;2.28;;;16.10;99.90;;;;;;4991942;28;20456;-49
2023/04/14 11:38:44;;;;;;;7.97;2.30;;;16.20;99.90;;;;;;4993001;28;20134;-41
2023/04/14 11:41:14;;;;;;;7.15;2.03;;;16.20;99.30;;;;;;4993016;28;20062;-39
2023/04/14 11:43:45;;;;;;;5.85;2.28;;;16.20;99.20;;;;;;4992321;28;20054;-42
2023/04/14 11:46:11;;;;;;;6.90;2.83;;;16.20;99.90;;;;;;4992530;28;20050;-38
2023/04/14 11:48:37;;;;;;;8.68;3.03;;;16.30;99.90;;;;;;4992843;28;20218;-43
2023/04/14 11:51:03;;;;;;;4.75;2.08;;;16.50;99.90;;;;;;4976313;28;20056;-38
2023/04/14 11:53:29;;;;;;;6.68;2.40;;;16.40;99.90;;;;;;5001813;28;20076;-50
2023/04/14 11:55:56;;;;;;;5.32;1.88;;;16.50;99.70;;;;;;5034508;28;20053;-38
2023/04/14 11:58:26;;;;;;;5.53;2.08;;;16.50;99.00;;;;;;5034889;28;20494;-50
2023/04/14 12:00:58;;;;;;;13.10;4.25;;;16.30;98.30;;;;;;5035500;28;20862;-48
2023/04/14 12:03:28;;;;;;;7.03;2.33;;;16.00;99.90;;;;;;5020709;28;20050;-45
2023/04/14 12:05:58;;;;;;;7.32;2.25;;;15.90;99.90;;;;;;5034983;28;20894;-45
2023/04/14 12:08:24;;;;;;;5.53;2.13;;;15.90;99.90;;;;;;5033694;28;20065;-49
2023/04/14 12:10:50;;;;;;;7.68;2.53;;;15.70;99.90;;;;;;5027045;28;20049;-44
2023/04/14 12:13:18;;;;;;;5.97;2.47;;;15.90;99.90;;;;;;5032731;28;20072;-38
2023/04/14 12:15:45;;;;;;;8.02;2.67;;;15.80;99.20;;;;;;5033053;28;20043;-40
2023/04/14 12:18:13;;;;;;;6.05;2.42;;;16.00;99.90;;;;;;5022707;28;20037;-40
2023/04/14 12:20:45;;;;;;;7.60;2.00;;;16.20;99.90;;;;;;5028801;28;20785;-45
2023/04/14 12:23:11;;;;;;;4.07;2.20;;;16.30;99.90;;;;;;5034253;28;20040;-38
2023/04/14 12:25:36;;;;;;;5.35;2.25;;;16.30;99.60;;;;;;5036968;28;20466;-38
2023/04/14 12:28:05;;;;;;;5.07;2.30;;;16.20;99.00;;;;;;5031790;28;20076;-46
2023/04/14 12:30:32;;;;;;;7.28;2.58;;;15.90;98.50;;;;;;5035836;28;20055;-38
2023/04/14 12:32:57;;;;;;;7.47;2.95;;;15.60;98.70;;;;;;5034091;28;20570;-50
2023/04/14 12:35:23;;;;;;;5.97;2.88;;;15.30;99.00;;;;;;5034106;28;20642;-48
2023/04/14 12:37:50;;;;;;;5.65;2.40;;;15.30;99.30;;;;;;5033438;28;20044;-50
2023/04/14 12:40:17;;;;;;;6.22;2.53;;;15.30;99.90;;;;;;5035970;28;20041;-38
2023/04/14 12:42:48;;;;;;;5.90;2.55;;;15.30;98.70;;;;;;5033693;28;20150;-44
2023/04/14 12:45:15;;;;;;;8.32;2.97;;;15.40;99.60;;;;;;5033381;28;20041;-43
2023/04/14 12:47:51;;;;;;;7.70;2.47;;;15.50;99.00;;;;;;5034622;28;20045;-45
2023/04/14 12:50:26;;;;;;;6.55;2.60;;;15.40;99.20;;;;;;5033011;28;20056;-42